Time;durP1;ratioP1;P1;durP2;ratioP2;P2;SDS_P1;SDS_P2;PMS_P1;PMS_P2;Temp;Humidity;BMP_temperature;BMP_pressure;BME280_temperature;BME280_humidity;BME280_pressure;Samples;Min_cycle;Max_cycle;Signal;HPM_P1;HPM_P2
2023/10/12 00:01:59;;;;;;;5.57;2.83;;;;;;;7.61;59.96;98902.53;4993319;28;20077;-64
2023/10/12 00:04:38;;;;;;;4.53;3.03;;;;;;;7.71;60.03;98909.75;4977667;28;20477;-65
2023/10/12 00:07:15;;;;;;;7.93;3.15;;;;;;;7.68;59.68;98896.69;4973367;28;20066;-65
2023/10/12 00:09:48;;;;;;;6.88;2.88;;;;;;;7.73;59.67;98889.19;4973937;28;20405;-64
2023/10/12 00:12:21;;;;;;;7.10;2.97;;;;;;;7.78;60.03;98904.75;4973985;28;20101;-64
2023/10/12 00:14:48;;;;;;;5.25;3.22;;;;;;;7.75;59.37;98892.56;4971707;28;20318;-63
2023/10/12 00:17:16;;;;;;;4.57;2.65;;;;;;;7.76;59.31;98886.25;4974052;28;20058;-64
2023/10/12 00:19:41;;;;;;;7.63;3.70;;;;;;;7.78;58.77;98878.97;4973553;28;20043;-64
2023/10/12 00:22:11;;;;;;;8.15;2.80;;;;;;;7.80;58.57;98858.38;4973705;28;20037;-64
2023/10/12 00:24:40;;;;;;;6.78;3.25;;;;;;;7.96;58.15;98884.56;4972792;28;20525;-62
2023/10/12 00:27:09;;;;;;;6.28;2.85;;;;;;;7.89;59.30;98876.22;4973719;28;20105;-64
2023/10/12 00:29:35;;;;;;;6.65;3.00;;;;;;;7.86;58.90;98843.69;4973749;28;20134;-64
2023/10/12 00:32:03;;;;;;;7.28;3.15;;;;;;;7.90;59.63;98845.13;4973613;28;20027;-66
2023/10/12 00:34:34;;;;;;;6.68;3.13;;;;;;;7.66;59.46;98805.41;4973093;28;20035;-65
2023/10/12 00:37:02;;;;;;;8.70;3.30;;;;;;;7.83;60.34;98812.81;4973042;28;20103;-64
2023/10/12 00:39:35;;;;;;;4.57;3.03;;;;;;;7.90;60.06;98797.97;4973622;28;20049;-63
2023/10/12 00:42:01;;;;;;;6.78;3.10;;;;;;;7.85;59.90;98778.03;4973135;28;20106;-65
2023/10/12 00:44:29;;;;;;;8.13;3.30;;;;;;;7.82;60.88;98773.81;4973745;28;20126;-64
2023/10/12 00:49:26;;;;;;;5.32;3.15;;;;;;;7.71;60.89;98785.38;4973274;28;20044;-65
2023/10/12 00:52:07;;;;;;;10.15;4.03;;;;;;;7.81;60.45;98800.56;4973259;28;20034;-64
2023/10/12 00:57:05;;;;;;;13.20;3.55;;;;;;;7.68;61.65;98824.75;4972853;28;20034;-64
2023/10/12 00:59:34;;;;;;;9.15;3.15;;;;;;;7.55;61.72;98801.84;4974298;28;20035;-65
2023/10/12 01:02:02;;;;;;;8.77;3.72;;;;;;;7.49;61.38;98781.06;4975251;28;20454;-64
2023/10/12 01:04:30;;;;;;;5.75;3.40;;;;;;;7.73;61.49;98815.41;4976888;28;20048;-63
2023/10/12 01:06:59;;;;;;;5.43;2.90;;;;;;;7.78;61.48;98823.03;4977328;28;20114;-61
2023/10/12 01:09:39;;;;;;;6.97;3.25;;;;;;;7.88;61.25;98807.09;4976305;28;20062;-62
2023/10/12 01:12:12;;;;;;;7.80;3.28;;;;;;;7.86;60.55;98801.88;4976622;28;20058;-64
2023/10/12 01:14:42;;;;;;;5.13;3.22;;;;;;;7.98;60.16;98807.97;4976391;28;20113;-63
2023/10/12 01:17:08;;;;;;;7.97;3.60;;;;;;;8.00;60.73;98786.53;4988116;28;20046;-65
2023/10/12 01:19:44;;;;;;;5.32;3.33;;;;;;;8.03;60.12;98784.44;4995934;28;20044;-63
2023/10/12 01:22:14;;;;;;;8.32;3.47;;;;;;;8.12;59.94;98777.44;4994961;28;20069;-65
2023/10/12 01:27:15;;;;;;;7.75;4.10;;;;;;;8.15;59.81;98769.19;4995655;28;20049;-64
2023/10/12 01:29:41;;;;;;;7.85;3.22;;;;;;;8.13;59.83;98776.47;4995878;28;20042;-65
2023/10/12 01:34:36;;;;;;;7.75;3.70;;;;;;;8.22;59.51;98747.34;4994202;28;20030;-64
2023/10/12 01:37:21;;;;;;;6.70;3.53;;;;;;;8.24;58.94;98740.03;4996048;28;20030;-64
2023/10/12 01:42:49;;;;;;;11.77;3.92;;;;;;;8.26;59.05;98746.06;4995096;28;20035;-63
2023/10/12 01:45:31;;;;;;;;;;;;;;;8.62;57.62;98749.13;4995933;28;20038;-64
2023/10/12 01:48:07;;;;;;;6.03;3.05;;;;;;;8.42;58.43;98710.88;4980971;28;19965;-62
2023/10/12 01:50:37;;;;;;;6.80;3.78;;;;;;;8.35;58.81;98705.25;4975413;28;20121;-65
2023/10/12 01:53:07;;;;;;;5.63;3.40;;;;;;;8.30;59.12;98691.47;4976555;28;20030;-64
2023/10/12 01:55:33;;;;;;;9.23;3.38;;;;;;;8.35;58.91;98689.25;4976042;28;20097;-65
2023/10/12 01:57:59;;;;;;;8.38;3.53;;;;;;;8.35;59.26;98705.25;4976926;28;20038;-63
2023/10/12 02:00:39;;;;;;;12.30;4.10;;;;;;;8.36;58.44;98685.59;4975490;28;20038;-64
2023/10/12 02:03:18;;;;;;;7.75;3.60;;;;;;;8.40;58.90;98695.00;4975377;28;20058;-64
2023/10/12 02:05:47;;;;;;;6.53;3.25;;;;;;;8.42;58.65;98663.69;4985915;28;20096;-63
2023/10/12 02:08:18;;;;;;;6.68;3.83;;;;;;;8.47;58.68;98685.47;4993913;28;20038;-64
2023/10/12 02:10:55;;;;;;;8.43;3.53;;;;;;;8.44;58.33;98669.75;4994592;28;20026;-64
2023/10/12 02:13:21;;;;;;;8.57;3.25;;;;;;;8.45;58.67;98668.78;4977872;28;20035;-65
2023/10/12 02:15:50;;;;;;;10.18;3.75;;;;;;;8.48;58.48;98681.84;4975694;28;20112;-65
2023/10/12 02:18:19;;;;;;;6.60;3.60;;;;;;;8.51;58.57;98664.72;4975619;28;20366;-64
2023/10/12 02:23:36;;;;;;;7.15;3.60;;;;;;;8.54;58.23;98647.59;4974973;28;20093;-62
2023/10/12 02:26:07;;;;;;;7.90;4.07;;;;;;;8.60;58.23;98652.38;4975365;28;20038;-63
2023/10/12 02:28:37;;;;;;;8.18;4.13;;;;;;;8.62;58.22;98653.06;4976099;28;20158;-64
2023/10/12 02:31:04;;;;;;;9.20;3.58;;;;;;;8.61;58.13;98660.25;4974411;28;20105;-64
2023/10/12 02:33:35;;;;;;;8.63;3.95;;;;;;;8.57;57.96;98644.66;4976018;28;20033;-60
2023/10/12 02:36:06;;;;;;;7.10;3.80;;;;;;;8.65;58.15;98639.44;4975223;28;20094;-64
2023/10/12 02:38:34;;;;;;;7.78;3.50;;;;;;;8.64;57.93;98635.09;4991053;28;20031;-65
2023/10/12 02:40:59;;;;;;;8.13;3.85;;;;;;;8.69;58.24;98629.34;4994113;28;20038;-65
2023/10/12 02:43:28;;;;;;;7.40;3.60;;;;;;;8.71;57.81;98620.22;4994117;28;20445;-66
2023/10/12 02:46:04;;;;;;;7.88;3.60;;;;;;;8.69;58.00;98608.84;4993932;28;20081;-65
2023/10/12 02:48:30;;;;;;;7.40;3.30;;;;;;;8.75;58.07;98615.44;4994376;28;20041;-65
2023/10/12 02:51:01;;;;;;;8.40;4.00;;;;;;;8.81;57.23;98606.88;4993962;28;20057;-65
2023/10/12 02:53:30;;;;;;;9.88;3.83;;;;;;;8.79;57.80;98606.16;4994140;28;20038;-66
2023/10/12 02:56:01;;;;;;;7.05;3.83;;;;;;;8.52;57.87;98562.38;4993861;28;20034;-63
2023/10/12 02:58:27;;;;;;;7.32;3.65;;;;;;;8.72;58.04;98568.53;4994160;28;20054;-64
2023/10/12 03:00:56;;;;;;;8.60;3.92;;;;;;;8.83;57.65;98572.88;4993823;28;20114;-65
2023/10/12 03:03:26;;;;;;;8.13;3.85;;;;;;;8.74;57.97;98566.56;4993552;28;20041;-65
2023/10/12 03:06:00;;;;;;;10.60;4.10;;;;;;;8.83;57.95;98569.34;4974386;28;20037;-65
2023/10/12 03:08:31;;;;;;;8.32;4.05;;;;;;;8.78;58.07;98566.28;4973289;28;20417;-65
2023/10/12 03:13:35;;;;;;;9.80;4.20;;;;;;;8.84;58.49;98585.22;4973627;28;20113;-65
2023/10/12 03:16:29;;;;;;;11.57;4.03;;;;;;;8.87;58.54;98570.75;4974537;28;20031;-64
2023/10/12 03:18:57;;;;;;;9.98;4.57;;;;;;;8.72;58.21;98522.31;4973444;28;20051;-65
2023/10/12 03:21:23;;;;;;;8.50;3.83;;;;;;;8.87;59.17;98530.69;4974010;28;20046;-64
2023/10/12 03:23:49;;;;;;;7.82;4.03;;;;;;;8.83;60.09;98554.19;4974168;28;20071;-64
2023/10/12 03:26:20;;;;;;;11.00;4.72;;;;;;;8.78;60.47;98547.59;4973969;28;20362;-63
2023/10/12 03:28:46;;;;;;;11.70;4.70;;;;;;;8.69;60.97;98527.94;4973690;28;20122;-62
2023/10/12 03:31:33;;;;;;;10.52;4.72;;;;;;;8.57;61.38;98506.78;4975176;28;20114;-64
2023/10/12 03:33:59;;;;;;;9.30;4.10;;;;;;;8.72;60.33;98525.84;4974404;28;20066;-64
2023/10/12 03:36:32;;;;;;;6.80;3.90;;;;;;;8.75;60.82;98524.69;4973693;28;20026;-66
2023/10/12 03:41:46;;;;;;;7.75;4.03;;;;;;;8.81;60.40;98517.94;4973173;28;20030;-64
2023/10/12 03:44:19;;;;;;;9.85;4.15;;;;;;;8.80;60.33;98510.94;4973824;28;20126;-64
2023/10/12 03:47:00;;;;;;;10.13;4.43;;;;;;;8.80;60.29;98494.91;4973425;28;20323;-65
2023/10/12 03:49:32;;;;;;;9.65;4.90;;;;;;;8.82;60.42;98491.13;4973536;28;20501;-65
2023/10/12 03:52:07;;;;;;;8.80;4.30;;;;;;;8.86;60.15;98513.88;4983550;28;20053;-64
2023/10/12 03:54:33;;;;;;;9.27;4.50;;;;;;;8.92;60.07;98499.06;4993147;28;20057;-64
2023/10/12 03:57:19;;;;;;;9.43;4.65;;;;;;;8.93;59.70;98498.13;4992955;28;20042;-65
2023/10/12 03:59:59;;;;;;;11.27;4.43;;;;;;;8.94;60.04;98504.28;4992841;28;20442;-65
2023/10/12 04:02:25;;;;;;;8.02;4.50;;;;;;;8.83;59.32;98467.94;4993275;28;20036;-67
2023/10/12 04:05:00;;;;;;;12.20;4.50;;;;;;;8.94;59.66;98491.78;4992989;28;20034;-66
2023/10/12 04:07:39;;;;;;;;;;;;;;;9.34;58.14;98484.44;4992907;28;20113;-64
2023/10/12 04:10:14;;;;;;;7.85;3.97;;;;;;;9.10;58.64;98479.63;4993513;28;19943;-65
2023/10/12 04:12:53;;;;;;;9.10;4.43;;;;;;;9.14;58.96;98486.34;4993186;28;20490;-65
2023/10/12 04:15:26;;;;;;;8.25;4.72;;;;;;;9.10;58.97;98484.97;4990749;28;20385;-66
2023/10/12 04:17:54;;;;;;;10.75;4.20;;;;;;;9.16;59.12;98495.91;4992530;28;20065;-64
2023/10/12 04:20:22;;;;;;;8.90;4.85;;;;;;;9.13;58.95;98479.31;4993058;28;20042;-65
2023/10/12 04:25:21;;;;;;;12.23;4.63;;;;;;;9.23;58.69;98488.13;4992427;28;20031;-65
2023/10/12 04:30:34;;;;;;;8.48;4.20;;;;;;;9.29;58.39;98478.69;4991466;28;20089;-62
2023/10/12 04:33:15;;;;;;;9.57;4.18;;;;;;;9.33;59.01;98491.59;4992472;28;20048;-65
2023/10/12 04:43:52;;;;;;;9.50;4.45;;;;;;;9.53;57.55;98496.00;4996371;28;20445;-63
2023/10/12 04:46:27;;;;;;;7.93;4.20;;;;;;;9.54;57.43;98485.16;4996329;28;20172;-65
2023/10/12 04:49:13;;;;;;;6.10;3.97;;;;;;;9.59;57.01;98479.34;4996668;28;20030;-65
2023/10/12 04:51:40;;;;;;;8.13;4.55;;;;;;;9.61;56.96;98472.84;4995815;28;20038;-63
2023/10/12 04:54:17;;;;;;;8.25;4.28;;;;;;;9.58;57.18;98470.50;4996357;28;20038;-65
2023/10/12 04:56:56;;;;;;;7.82;4.30;;;;;;;9.63;58.06;98486.06;4991612;28;20026;-65
2023/10/12 04:59:42;;;;;;;8.75;4.30;;;;;;;9.59;57.59;98480.19;4984335;28;20472;-67
2023/10/12 05:04:37;;;;;;;8.77;4.60;;;;;;;9.66;57.37;98484.94;4976912;28;20039;-66
2023/10/12 05:09:49;;;;;;;8.70;4.43;;;;;;;9.71;57.79;98479.97;4976588;28;20478;-66
2023/10/12 05:12:23;;;;;;;8.68;4.35;;;;;;;9.77;57.80;98479.38;4976490;28;20354;-66
2023/10/12 05:14:55;;;;;;;6.68;4.05;;;;;;;9.71;58.11;98482.66;4976098;28;20038;-65
2023/10/12 05:17:21;;;;;;;7.85;4.35;;;;;;;9.69;58.72;98481.97;4976236;28;20039;-64
2023/10/12 05:19:53;;;;;;;13.25;4.65;;;;;;;9.67;58.64;98475.94;4976727;28;20057;-65
2023/10/12 05:22:19;;;;;;;12.60;5.10;;;;;;;9.72;58.69;98471.78;4977042;28;20043;-65
2023/10/12 05:24:46;;;;;;;11.57;4.45;;;;;;;9.65;59.18;98461.88;4975915;28;20101;-66
2023/10/12 05:27:26;;;;;;;10.15;4.88;;;;;;;9.65;59.32;98452.03;4976954;28;20030;-65
2023/10/12 05:29:52;;;;;;;10.30;5.78;;;;;;;9.71;59.75;98455.94;4976104;28;20039;-65
2023/10/12 05:32:36;;;;;;;11.48;5.43;;;;;;;9.72;60.08;98457.59;4975624;28;20035;-65
2023/10/12 05:35:05;;;;;;;13.75;5.32;;;;;;;9.68;60.04;98451.72;4975978;28;20110;-66
2023/10/12 05:37:38;;;;;;;10.20;5.00;;;;;;;9.55;60.07;98430.72;4976423;28;20043;-64
2023/10/12 05:40:10;;;;;;;12.23;4.85;;;;;;;9.69;60.01;98440.03;4975454;28;20117;-65
2023/10/12 05:42:39;;;;;;;9.77;5.00;;;;;;;9.66;59.94;98429.66;4976975;28;20370;-65
2023/10/12 05:45:31;;;;;;;11.70;5.00;;;;;;;9.62;60.35;98430.94;4976224;28;20077;-65
2023/10/12 05:47:56;;;;;;;8.20;4.70;;;;;;;9.39;60.29;98377.97;4975948;28;20042;-65
2023/10/12 05:50:25;;;;;;;14.65;5.20;;;;;;;9.59;60.43;98415.22;4975382;28;20031;-64
2023/10/12 05:52:52;;;;;;;11.15;5.30;;;;;;;9.63;61.04;98417.41;4975620;28;20124;-66
2023/10/12 05:55:21;;;;;;;10.27;5.25;;;;;;;9.64;60.84;98412.94;4975814;28;20038;-65
2023/10/12 05:57:49;;;;;;;10.63;5.78;;;;;;;9.67;60.95;98417.16;4976038;28;20039;-64
2023/10/12 06:00:35;;;;;;;8.07;5.10;;;;;;;9.62;60.86;98409.56;4974539;28;20430;-67
2023/10/12 06:03:10;;;;;;;9.43;4.68;;;;;;;9.66;60.60;98407.44;4982538;28;20034;-66
2023/10/12 06:05:36;;;;;;;11.40;5.30;;;;;;;9.60;61.20;98415.06;4976064;28;20140;-65
2023/10/12 06:08:06;;;;;;;9.55;5.38;;;;;;;9.56;61.16;98411.00;4975726;28;20458;-65
2023/10/12 06:10:33;;;;;;;8.88;4.93;;;;;;;9.28;61.20;98360.34;4974096;28;20022;-65
2023/10/12 06:12:59;;;;;;;10.75;5.53;;;;;;;9.56;60.97;98388.81;4975075;28;20043;-64
2023/10/12 06:15:30;;;;;;;10.05;5.43;;;;;;;9.55;61.33;98371.94;4975523;28;20038;-65
2023/10/12 06:17:57;;;;;;;8.93;5.55;;;;;;;9.38;61.37;98332.69;4984366;28;20050;-65
2023/10/12 06:20:36;;;;;;;14.77;5.65;;;;;;;9.57;61.61;98367.28;4994327;28;20178;-65
2023/10/12 06:23:08;;;;;;;10.88;5.38;;;;;;;9.57;61.07;98361.94;4976828;28;20492;-64
2023/10/12 06:25:37;;;;;;;11.48;5.20;;;;;;;9.65;61.27;98361.16;4975327;28;20106;-63
2023/10/12 06:28:14;;;;;;;10.55;5.03;;;;;;;9.66;60.84;98356.69;4974922;28;20050;-64
2023/10/12 06:30:46;;;;;;;11.63;5.60;;;;;;;9.74;61.14;98343.38;4974750;28;20045;-64
2023/10/12 06:33:15;;;;;;;11.90;5.82;;;;;;;9.68;60.40;98328.78;4975166;28;20034;-64
2023/10/12 06:36:00;;;;;;;10.80;5.72;;;;;;;9.86;60.47;98351.97;4973900;28;20097;-65
2023/10/12 06:38:38;;;;;;;9.32;5.45;;;;;;;9.95;59.95;98323.47;4975543;28;20114;-66
2023/10/12 06:46:19;;;;;;;11.40;5.45;;;;;;;9.98;59.61;98315.13;4974485;28;20126;-65
2023/10/12 06:48:45;;;;;;;12.95;5.68;;;;;;;9.99;59.72;98322.16;4974271;28;20114;-64
2023/10/12 06:51:13;;;;;;;9.68;5.07;;;;;;;10.07;59.71;98319.53;4975187;28;20118;-65
2023/10/12 06:53:41;;;;;;;11.82;6.05;;;;;;;10.02;59.56;98324.50;4974164;28;20035;-64
2023/10/12 06:58:46;;;;;;;13.13;5.75;;;;;;;10.19;59.76;98339.66;4993192;28;20089;-63
2023/10/12 07:01:27;;;;;;;11.60;6.35;;;;;;;10.25;59.93;98318.63;4989542;28;20035;-65
2023/10/12 07:03:53;;;;;;;9.93;5.50;;;;;;;10.06;59.52;98288.44;4979936;28;20445;-67
2023/10/12 07:06:19;;;;;;;14.05;6.05;;;;;;;10.29;59.46;98318.16;4985610;28;20050;-66
2023/10/12 07:08:49;;;;;;;11.50;6.15;;;;;;;10.29;59.65;98309.28;4993349;28;20062;-66
2023/10/12 07:11:17;;;;;;;11.07;6.07;;;;;;;10.41;59.45;98313.41;4992737;28;20062;-68
2023/10/12 07:13:45;;;;;;;11.75;6.25;;;;;;;10.44;59.37;98305.03;4993868;28;20030;-67
2023/10/12 07:16:16;;;;;;;13.88;6.53;;;;;;;10.54;59.22;98290.69;4992682;28;20034;-67
2023/10/12 07:18:43;;;;;;;10.70;6.35;;;;;;;10.61;59.55;98286.38;4982364;28;20051;-67
2023/10/12 07:21:20;;;;;;;14.50;6.40;;;;;;;10.79;59.76;98286.25;4976431;28;20042;-65
2023/10/12 07:23:56;;;;;;;15.00;6.57;;;;;;;10.95;58.70;98282.78;4993699;28;20026;-65
2023/10/12 07:26:23;;;;;;;14.40;6.22;;;;;;;11.00;58.71;98271.59;4992742;28;20101;-68
2023/10/12 07:28:55;;;;;;;13.68;6.00;;;;;;;10.93;58.39;98225.03;4991697;28;20034;-68
2023/10/12 07:31:41;;;;;;;13.48;6.60;;;;;;;11.01;58.07;98238.44;4990772;28;20037;-68
2023/10/12 07:34:13;;;;;;;14.63;7.97;;;;;;;10.94;58.15;98222.19;4972646;28;20446;-66
2023/10/12 07:42:00;;;;;;;16.27;6.50;;;;;;;10.79;58.33;98176.50;4966042;28;20043;-64
2023/10/12 07:44:27;;;;;;;12.38;6.03;;;;;;;11.15;58.62;98244.97;4973598;28;20365;-63
2023/10/12 07:46:56;;;;;;;11.80;6.43;;;;;;;11.06;58.75;98247.63;4973386;28;20046;-65
2023/10/12 07:49:48;;;;;;;13.15;6.45;;;;;;;11.10;58.51;98236.63;4971516;28;20522;-65
2023/10/12 07:57:18;;;;;;;10.77;5.93;;;;;;;11.13;58.13;98204.97;4979485;28;20037;-63
2023/10/12 08:13:32;;;;;;;13.27;6.22;;;;;;;11.40;57.39;98178.00;4996398;28;20038;-65
2023/10/12 08:15:59;;;;;;;14.13;7.30;;;;;;;11.48;56.96;98159.22;4995697;28;20034;-68
2023/10/12 08:19:10;;;;;;;17.20;6.65;;;;;;;11.59;56.92;98166.06;4976435;28;20043;-69
2023/10/12 08:21:38;;;;;;;11.90;5.90;;;;;;;11.69;56.48;98155.13;4989981;28;20092;-66
2023/10/12 08:24:22;;;;;;;11.90;6.43;;;;;;;11.83;56.25;98159.78;4995357;28;20026;-67
2023/10/12 08:26:48;;;;;;;13.15;7.20;;;;;;;11.88;55.75;98169.97;4996421;28;20577;-69
2023/10/12 08:32:02;;;;;;;13.40;6.70;;;;;;;11.98;55.68;98159.91;4995930;28;20038;-64
2023/10/12 08:34:42;;;;;;;11.63;6.43;;;;;;;11.78;55.52;98095.09;4984829;28;20094;-66
2023/10/12 08:45:06;;;;;;;12.68;6.40;;;;;;;12.24;55.10;98125.75;4976360;28;20030;-65
2023/10/12 08:50:05;;;;;;;9.50;6.40;;;;;;;12.08;55.14;98089.97;4982005;28;20454;-69
2023/10/12 08:52:32;;;;;;;13.55;6.63;;;;;;;12.23;56.02;98121.41;4988316;28;20030;-68
2023/10/12 08:57:38;;;;;;;15.13;6.55;;;;;;;12.06;56.66;98075.91;4993967;28;20065;-66
2023/10/12 09:00:38;;;;;;;14.52;6.63;;;;;;;12.26;56.91;98089.69;4994957;28;20034;-66
2023/10/12 09:05:54;;;;;;;12.68;7.18;;;;;;;12.18;57.92;98097.81;4993770;28;20030;-67
2023/10/12 09:13:35;;;;;;;13.90;6.85;;;;;;;11.93;57.78;98022.78;4976228;28;20027;-66
2023/10/12 09:16:14;;;;;;;14.93;6.78;;;;;;;12.15;57.95;98064.09;4976574;28;20113;-66
2023/10/12 09:18:44;;;;;;;12.07;6.88;;;;;;;12.18;57.79;98063.75;4987882;28;20057;-64
2023/10/12 09:24:14;;;;;;;10.82;6.65;;;;;;;12.31;57.20;98063.16;4975724;28;20335;-63
2023/10/12 09:26:55;;;;;;;15.90;6.72;;;;;;;12.31;57.02;98057.78;4983709;28;20092;-67
2023/10/12 09:29:23;;;;;;;13.50;6.60;;;;;;;12.19;56.61;98032.41;4987268;28;20102;-65
2023/10/12 09:32:14;;;;;;;15.10;6.63;;;;;;;12.28;56.99;98033.16;4993450;28;20097;-67
2023/10/12 09:34:44;;;;;;;13.82;7.03;;;;;;;12.47;56.12;98051.47;4985958;28;20034;-68
2023/10/12 09:37:16;;;;;;;12.88;7.00;;;;;;;12.54;56.02;98091.84;4982964;28;20035;-67
2023/10/12 09:39:46;;;;;;;10.88;6.85;;;;;;;12.43;56.33;98082.38;4995117;28;20069;-66
2023/10/12 09:42:22;;;;;;;11.85;7.00;;;;;;;12.41;56.72;98111.22;4994805;28;20058;-66
2023/10/12 09:45:01;;;;;;;14.65;6.43;;;;;;;12.27;57.19;98093.19;4986675;28;20030;-65
2023/10/12 09:47:55;;;;;;;14.70;7.30;;;;;;;12.43;58.75;98117.25;4982780;28;20054;-67
2023/10/12 09:50:27;;;;;;;11.82;7.47;;;;;;;12.44;59.35;98121.59;4994327;28;20469;-66
2023/10/12 09:52:58;;;;;;;17.27;7.40;;;;;;;12.42;59.81;98107.53;4993359;28;20034;-67
2023/10/12 09:55:32;;;;;;;12.73;6.75;;;;;;;12.43;60.51;98122.63;4994444;28;20033;-67
2023/10/12 09:58:34;;;;;;;12.02;7.35;;;;;;;12.34;62.17;98118.34;4987592;28;20087;-66
2023/10/12 10:00:59;;;;;;;12.43;7.28;;;;;;;12.20;62.78;98104.66;4984161;28;20054;-66
2023/10/12 10:03:27;;;;;;;12.75;7.45;;;;;;;12.25;62.71;98130.97;4983683;28;20022;-67
2023/10/12 10:06:10;;;;;;;11.27;6.93;;;;;;;12.19;62.90;98115.56;4984370;28;20114;-68
2023/10/12 10:08:44;;;;;;;15.02;7.97;;;;;;;12.23;63.78;98124.09;4975258;28;20035;-68
2023/10/12 10:11:12;;;;;;;13.20;7.57;;;;;;;11.99;63.07;98066.84;4979939;28;20036;-68
2023/10/12 10:13:46;;;;;;;13.98;8.38;;;;;;;12.33;63.08;98125.53;4985110;28;20449;-66
2023/10/12 10:16:17;;;;;;;18.00;8.10;;;;;;;12.33;62.66;98119.34;4979718;28;20100;-66
2023/10/12 10:18:48;;;;;;;11.35;7.35;;;;;;;12.32;62.15;98112.31;4989306;28;20049;-63
2023/10/12 10:21:19;;;;;;;12.50;7.78;;;;;;;12.37;63.12;98112.59;4976953;28;20059;-63
2023/10/12 10:23:48;;;;;;;15.25;7.85;;;;;;;12.47;63.00;98129.31;4973832;28;20362;-64
2023/10/12 10:26:20;;;;;;;11.90;7.78;;;;;;;12.60;62.24;98119.84;4974846;28;20027;-65
2023/10/12 10:28:55;;;;;;;15.07;8.13;;;;;;;12.67;61.71;98139.56;4975080;28;20038;-66
2023/10/12 10:31:46;;;;;;;16.35;8.70;;;;;;;12.86;61.87;98142.78;4984205;28;20048;-62
2023/10/12 10:34:16;;;;;;;15.60;8.55;;;;;;;12.81;61.28;98146.00;4990494;28;20564;-63
2023/10/12 10:36:50;;;;;;;14.18;7.90;;;;;;;12.86;61.57;98127.50;4993002;28;20113;-62
2023/10/12 10:41:54;;;;;;;15.43;8.40;;;;;;;12.82;62.07;98144.19;4976936;28;20106;-62
2023/10/12 10:44:22;;;;;;;10.10;7.53;;;;;;;12.86;61.78;98150.84;4974121;28;20438;-62
2023/10/12 10:47:12;;;;;;;16.65;7.60;;;;;;;12.84;61.89;98142.16;4974328;28;20037;-65
2023/10/12 10:49:37;;;;;;;14.52;7.75;;;;;;;12.78;61.86;98144.53;4974354;28;20116;-67
2023/10/12 10:54:37;;;;;;;13.98;8.35;;;;;;;12.68;62.45;98148.47;4973863;28;20113;-66
2023/10/12 10:57:16;;;;;;;13.60;8.50;;;;;;;12.65;62.65;98176.50;4977822;28;20034;-66
2023/10/12 10:59:45;;;;;;;17.00;7.57;;;;;;;12.66;62.87;98154.00;4976378;28;20104;-67
2023/10/12 11:02:14;;;;;;;16.30;7.90;;;;;;;12.52;63.05;98152.09;4980039;28;20038;-66
2023/10/12 11:07:11;;;;;;;17.20;8.23;;;;;;;12.37;63.30;98126.03;4993336;28;20084;-68
2023/10/12 11:12:20;;;;;;;16.60;8.15;;;;;;;12.66;63.47;98155.84;4993569;28;20453;-63
2023/10/12 11:14:52;;;;;;;16.95;8.40;;;;;;;12.60;63.41;98181.59;4986921;28;20450;-66
2023/10/12 11:17:21;;;;;;;14.23;8.30;;;;;;;12.62;63.97;98184.94;4984408;28;20085;-70
2023/10/12 11:19:50;;;;;;;12.80;8.23;;;;;;;12.55;63.97;98192.03;4976683;28;20366;-67
2023/10/12 11:22:29;;;;;;;;;;;;;;;12.90;62.07;98184.41;5128867;27;20396;-66
2023/10/12 11:24:54;;;;;;;;;;;;;;;13.00;61.54;98195.72;5129215;27;19938;-68
2023/10/12 11:27:33;;;;;;;14.63;7.87;;;;;;;12.74;63.64;98196.09;5128324;28;19915;-62
2023/10/12 11:30:07;;;;;;;17.70;8.32;;;;;;;12.49;65.40;98186.31;5128058;27;20361;-69
2023/10/12 11:32:51;;;;;;;22.15;9.95;;;;;;;12.54;65.53;98193.00;5128504;27;20353;-69
2023/10/12 11:35:17;;;;;;;14.40;8.60;;;;;;;12.45;66.38;98198.44;5133702;27;20023;-68
2023/10/12 11:37:42;;;;;;;16.40;8.13;;;;;;;12.41;66.42;98212.38;5129054;27;20035;-69
2023/10/12 11:40:09;;;;;;;12.90;8.18;;;;;;;12.34;67.23;98217.63;5148370;27;20026;-71
2023/10/12 11:42:51;;;;;;;15.10;8.68;;;;;;;12.42;67.48;98204.16;5150870;27;20400;-69
2023/10/12 11:45:18;;;;;;;13.98;8.48;;;;;;;12.37;67.94;98184.22;5135877;27;20027;-69
2023/10/12 11:47:43;;;;;;;15.00;8.90;;;;;;;12.55;67.28;98195.53;5129971;27;20028;-72
2023/10/12 11:50:13;;;;;;;16.92;8.05;;;;;;;12.28;66.81;98116.34;5119253;28;20034;-71
2023/10/12 11:52:40;;;;;;;15.15;7.95;;;;;;;12.75;66.35;98192.38;5116188;27;20126;-68
2023/10/12 11:55:20;;;;;;;15.00;9.00;;;;;;;12.97;66.30;98200.63;5115261;27;20160;-69
2023/10/12 11:57:58;;;;;;;15.90;7.88;;;;;;;13.05;66.07;98219.38;5112421;28;20035;-66
2023/10/12 12:00:29;;;;;;;16.67;8.43;;;;;;;13.07;65.52;98191.31;5123185;27;20534;-69
2023/10/12 12:03:02;;;;;;;14.80;8.48;;;;;;;13.11;65.55;98191.78;5121307;27;20031;-70
2023/10/12 12:05:31;;;;;;;13.85;8.65;;;;;;;13.07;65.94;98211.97;5112444;28;20357;-67
2023/10/12 12:07:58;;;;;;;13.70;8.98;;;;;;;13.04;66.04;98197.06;5120662;27;20043;-68
2023/10/12 12:10:37;;;;;;;15.15;9.27;;;;;;;12.88;66.44;98191.78;5128063;27;20449;-67
2023/10/12 12:13:09;;;;;;;14.82;8.43;;;;;;;12.91;66.17;98175.31;5109657;28;20027;-68
2023/10/12 12:15:35;;;;;;;18.73;8.82;;;;;;;12.83;66.47;98161.97;5127921;27;20027;-69
2023/10/12 12:18:04;;;;;;;17.33;9.00;;;;;;;12.80;66.68;98159.63;5127392;27;20470;-67
2023/10/12 12:20:38;;;;;;;11.77;8.20;;;;;;;12.83;66.58;98153.91;5125723;28;20046;-66
2023/10/12 12:23:04;;;;;;;14.98;7.78;;;;;;;12.88;66.57;98138.91;5128342;27;20035;-69
2023/10/12 12:25:34;;;;;;;13.68;8.27;;;;;;;12.90;66.88;98088.56;5128742;27;20384;-69
2023/10/12 12:28:01;;;;;;;14.27;8.23;;;;;;;12.97;66.30;98055.56;5129235;27;20027;-68
2023/10/12 12:30:30;;;;;;;12.07;8.10;;;;;;;13.02;66.33;98059.38;5129383;27;20069;-67
2023/10/12 12:33:08;;;;;;;12.80;8.15;;;;;;;13.03;66.08;98050.31;5120616;27;20114;-69
2023/10/12 12:35:38;;;;;;;15.48;8.55;;;;;;;12.98;66.35;98078.72;5114056;28;20038;-66
2023/10/12 12:38:14;;;;;;;14.00;8.18;;;;;;;12.99;66.45;98091.97;5129469;27;20384;-65
2023/10/12 12:40:42;;;;;;;13.55;8.25;;;;;;;12.99;66.42;98091.16;5135611;27;20063;-64
2023/10/12 12:43:10;;;;;;;13.73;8.45;;;;;;;12.80;66.72;98071.00;5124467;27;20051;-67
2023/10/12 12:45:36;;;;;;;10.77;7.70;;;;;;;12.95;66.86;98085.28;5115107;28;20124;-68
2023/10/12 12:48:04;;;;;;;11.75;8.00;;;;;;;12.84;66.73;98067.75;5115131;27;20027;-70
2023/10/12 12:50:30;;;;;;;15.35;7.88;;;;;;;13.07;66.41;98131.34;5115030;28;20044;-66
2023/10/12 12:52:57;;;;;;;13.32;7.25;;;;;;;13.10;66.40;98140.91;5115355;28;20049;-69
2023/10/12 12:55:27;;;;;;;13.27;7.40;;;;;;;13.14;66.63;98126.09;5114611;28;20407;-65
2023/10/12 12:57:53;;;;;;;12.45;7.47;;;;;;;13.14;66.31;98109.97;5114229;28;20463;-63
2023/10/12 13:00:21;;;;;;;12.90;7.20;;;;;;;13.23;66.11;98113.44;5115390;28;20032;-69
2023/10/12 13:02:47;;;;;;;11.50;7.00;;;;;;;13.25;66.17;98109.50;5113764;28;20442;-66
2023/10/12 13:05:14;;;;;;;10.93;6.82;;;;;;;13.30;65.85;98115.19;5114756;28;20032;-67
2023/10/12 13:07:40;;;;;;;9.95;6.63;;;;;;;13.28;66.06;98116.38;5115252;27;20031;-68
2023/10/12 13:10:07;;;;;;;11.93;7.55;;;;;;;12.99;66.38;98091.97;5114822;28;20035;-66
2023/10/12 13:12:33;;;;;;;11.18;7.38;;;;;;;13.09;66.49;98112.38;5114545;28;20119;-63
2023/10/12 13:15:01;;;;;;;12.98;7.53;;;;;;;13.17;66.62;98114.97;5099070;28;20370;-65
2023/10/12 13:17:31;;;;;;;11.23;6.43;;;;;;;13.23;66.71;98124.16;5094432;28;20032;-66
2023/10/12 13:19:59;;;;;;;10.73;6.82;;;;;;;13.21;66.81;98116.28;5093498;28;20024;-67
2023/10/12 13:22:25;;;;;;;11.57;6.78;;;;;;;13.22;66.81;98126.00;5111832;27;20043;-66
2023/10/12 13:24:56;;;;;;;11.40;6.60;;;;;;;13.15;67.11;98104.44;5123865;27;20484;-66
2023/10/12 13:27:24;;;;;;;11.40;6.72;;;;;;;13.24;66.73;98123.97;5132973;27;20046;-62
2023/10/12 13:29:50;;;;;;;11.13;6.05;;;;;;;13.21;66.78;98116.28;5127217;27;20024;-66
2023/10/12 13:32:18;;;;;;;8.88;6.53;;;;;;;13.17;66.89;98109.59;5113621;28;20039;-68
2023/10/12 13:34:44;;;;;;;7.80;5.60;;;;;;;13.15;66.77;98117.88;5116099;27;20032;-65
2023/10/12 13:37:09;;;;;;;9.35;6.22;;;;;;;13.14;66.74;98116.19;5112405;28;20513;-67
2023/10/12 13:39:34;;;;;;;10.07;5.65;;;;;;;13.13;66.87;98108.31;5111944;28;20496;-66
2023/10/12 13:42:00;;;;;;;8.85;5.45;;;;;;;13.13;67.05;98111.00;5112520;28;20039;-66
2023/10/12 13:44:25;;;;;;;10.93;5.55;;;;;;;13.14;66.97;98120.72;5113724;27;20463;-66